sensor_id;sensor_type;location;lat;lon;timestamp;temperature;humidity
79489;SHT31;68949;53.176;18.088;2023-08-12T00:01:39;13.87;73.01
79489;SHT31;68949;53.176;18.088;2023-08-12T00:04:05;13.78;73.49
79489;SHT31;68949;53.176;18.088;2023-08-12T00:06:32;13.72;73.51
79489;SHT31;68949;53.176;18.088;2023-08-12T00:08:59;13.71;73.40
79489;SHT31;68949;53.176;18.088;2023-08-12T00:11:26;13.67;73.35
79489;SHT31;68949;53.176;18.088;2023-08-12T00:13:52;13.62;73.26
79489;SHT31;68949;53.176;18.088;2023-08-12T00:16:19;13.61;73.27
79489;SHT31;68949;53.176;18.088;2023-08-12T00:18:45;13.59;73.58
79489;SHT31;68949;53.176;18.088;2023-08-12T00:21:12;13.55;73.87
79489;SHT31;68949;53.176;18.088;2023-08-12T00:23:39;13.43;74.11
79489;SHT31;68949;53.176;18.088;2023-08-12T00:26:07;13.31;74.16
79489;SHT31;68949;53.176;18.088;2023-08-12T00:28:35;13.30;73.94
79489;SHT31;68949;53.176;18.088;2023-08-12T00:31:02;13.33;73.78
79489;SHT31;68949;53.176;18.088;2023-08-12T00:33:29;13.37;74.28
79489;SHT31;68949;53.176;18.088;2023-08-12T00:35:56;13.45;74.69
79489;SHT31;68949;53.176;18.088;2023-08-12T00:38:23;13.54;74.33
79489;SHT31;68949;53.176;18.088;2023-08-12T00:40:50;13.56;74.02
79489;SHT31;68949;53.176;18.088;2023-08-12T00:43:17;13.58;74.02
79489;SHT31;68949;53.176;18.088;2023-08-12T00:45:43;13.56;74.22
79489;SHT31;68949;53.176;18.088;2023-08-12T00:48:11;13.48;74.42
79489;SHT31;68949;53.176;18.088;2023-08-12T00:50:38;13.47;74.48
79489;SHT31;68949;53.176;18.088;2023-08-12T00:53:06;13.48;74.44
79489;SHT31;68949;53.176;18.088;2023-08-12T00:55:34;13.49;74.29
79489;SHT31;68949;53.176;18.088;2023-08-12T00:58:01;13.46;74.31
79489;SHT31;68949;53.176;18.088;2023-08-12T01:00:29;13.40;74.56
79489;SHT31;68949;53.176;18.088;2023-08-12T01:02:58;13.36;74.71
79489;SHT31;68949;53.176;18.088;2023-08-12T01:05:27;13.35;74.75
79489;SHT31;68949;53.176;18.088;2023-08-12T01:07:56;13.35;75.04
79489;SHT31;68949;53.176;18.088;2023-08-12T01:10:23;13.35;74.88
79489;SHT31;68949;53.176;18.088;2023-08-12T01:13:02;13.35;74.64
79489;SHT31;68949;53.176;18.088;2023-08-12T01:15:43;13.36;74.68
79489;SHT31;68949;53.176;18.088;2023-08-12T01:18:11;13.38;74.58
79489;SHT31;68949;53.176;18.088;2023-08-12T01:20:40;13.35;74.67
79489;SHT31;68949;53.176;18.088;2023-08-12T01:23:13;13.31;75.00
79489;SHT31;68949;53.176;18.088;2023-08-12T01:25:41;13.28;75.03
79489;SHT31;68949;53.176;18.088;2023-08-12T01:28:09;13.26;74.90
79489;SHT31;68949;53.176;18.088;2023-08-12T01:36:58;13.14;74.85
79489;SHT31;68949;53.176;18.088;2023-08-12T01:39:28;13.11;74.79
79489;SHT31;68949;53.176;18.088;2023-08-12T01:41:58;13.07;74.86
79489;SHT31;68949;53.176;18.088;2023-08-12T01:44:26;13.01;74.96
79489;SHT31;68949;53.176;18.088;2023-08-12T01:46:54;13.01;75.13
79489;SHT31;68949;53.176;18.088;2023-08-12T01:49:21;13.03;75.11
79489;SHT31;68949;53.176;18.088;2023-08-12T01:51:49;13.09;75.12
79489;SHT31;68949;53.176;18.088;2023-08-12T01:54:16;13.14;75.02
79489;SHT31;68949;53.176;18.088;2023-08-12T01:56:43;13.18;75.09
79489;SHT31;68949;53.176;18.088;2023-08-12T01:59:09;13.17;75.30
79489;SHT31;68949;53.176;18.088;2023-08-12T02:01:36;13.18;75.37
79489;SHT31;68949;53.176;18.088;2023-08-12T02:04:03;13.17;75.30
79489;SHT31;68949;53.176;18.088;2023-08-12T02:06:30;13.16;75.40
79489;SHT31;68949;53.176;18.088;2023-08-12T02:08:56;13.12;75.48
79489;SHT31;68949;53.176;18.088;2023-08-12T02:11:23;13.10;75.54
79489;SHT31;68949;53.176;18.088;2023-08-12T02:13:49;13.12;75.40
79489;SHT31;68949;53.176;18.088;2023-08-12T02:16:16;13.06;75.59
79489;SHT31;68949;53.176;18.088;2023-08-12T02:18:43;12.98;75.90
79489;SHT31;68949;53.176;18.088;2023-08-12T02:21:09;12.99;76.11
79489;SHT31;68949;53.176;18.088;2023-08-12T02:23:36;13.00;76.08
79489;SHT31;68949;53.176;18.088;2023-08-12T02:26:03;13.03;76.02
79489;SHT31;68949;53.176;18.088;2023-08-12T02:28:29;13.07;76.00
79489;SHT31;68949;53.176;18.088;2023-08-12T02:30:56;13.10;75.94
79489;SHT31;68949;53.176;18.088;2023-08-12T02:33:22;13.07;76.03
79489;SHT31;68949;53.176;18.088;2023-08-12T02:35:52;13.03;75.83
79489;SHT31;68949;53.176;18.088;2023-08-12T02:38:21;12.99;75.88
79489;SHT31;68949;53.176;18.088;2023-08-12T02:40:48;12.98;75.84
79489;SHT31;68949;53.176;18.088;2023-08-12T02:43:16;12.98;75.83
79489;SHT31;68949;53.176;18.088;2023-08-12T02:45:43;12.99;75.95
79489;SHT31;68949;53.176;18.088;2023-08-12T02:48:10;12.98;76.22
79489;SHT31;68949;53.176;18.088;2023-08-12T02:50:37;12.99;76.14
79489;SHT31;68949;53.176;18.088;2023-08-12T02:53:05;13.01;75.98
79489;SHT31;68949;53.176;18.088;2023-08-12T02:55:33;12.98;75.93
79489;SHT31;68949;53.176;18.088;2023-08-12T02:58:00;12.98;76.01
79489;SHT31;68949;53.176;18.088;2023-08-12T03:00:28;12.98;76.04
79489;SHT31;68949;53.176;18.088;2023-08-12T03:02:54;12.96;76.48
79489;SHT31;68949;53.176;18.088;2023-08-12T03:05:21;12.90;76.86
79489;SHT31;68949;53.176;18.088;2023-08-12T03:07:49;12.85;76.68
79489;SHT31;68949;53.176;18.088;2023-08-12T03:10:18;12.94;76.49
79489;SHT31;68949;53.176;18.088;2023-08-12T03:12:45;13.02;76.39
79489;SHT31;68949;53.176;18.088;2023-08-12T03:15:12;13.02;76.50
79489;SHT31;68949;53.176;18.088;2023-08-12T03:17:39;13.04;76.47
79489;SHT31;68949;53.176;18.088;2023-08-12T03:20:06;13.10;76.52
79489;SHT31;68949;53.176;18.088;2023-08-12T03:22:36;13.15;76.52
79489;SHT31;68949;53.176;18.088;2023-08-12T03:25:04;13.16;76.78
79489;SHT31;68949;53.176;18.088;2023-08-12T03:27:32;13.18;76.83
79489;SHT31;68949;53.176;18.088;2023-08-12T03:29:59;13.19;76.64
79489;SHT31;68949;53.176;18.088;2023-08-12T03:32:26;13.17;76.60
79489;SHT31;68949;53.176;18.088;2023-08-12T03:34:53;13.20;76.46
79489;SHT31;68949;53.176;18.088;2023-08-12T03:37:20;13.22;76.41
79489;SHT31;68949;53.176;18.088;2023-08-12T03:39:47;13.25;76.39
79489;SHT31;68949;53.176;18.088;2023-08-12T03:42:13;13.32;76.27
79489;SHT31;68949;53.176;18.088;2023-08-12T03:44:43;13.38;76.09
79489;SHT31;68949;53.176;18.088;2023-08-12T03:47:11;13.45;75.91
79489;SHT31;68949;53.176;18.088;2023-08-12T03:49:37;13.53;75.94
79489;SHT31;68949;53.176;18.088;2023-08-12T03:52:04;13.62;75.87
79489;SHT31;68949;53.176;18.088;2023-08-12T03:54:33;13.73;75.78
79489;SHT31;68949;53.176;18.088;2023-08-12T03:57:00;13.86;75.59
79489;SHT31;68949;53.176;18.088;2023-08-12T03:59:27;13.96;75.34
79489;SHT31;68949;53.176;18.088;2023-08-12T04:01:54;14.03;75.18
79489;SHT31;68949;53.176;18.088;2023-08-12T04:04:21;14.13;75.11
79489;SHT31;68949;53.176;18.088;2023-08-12T04:06:48;14.22;74.90
79489;SHT31;68949;53.176;18.088;2023-08-12T04:09:17;14.30;74.84
79489;SHT31;68949;53.176;18.088;2023-08-12T04:11:46;14.33;74.71
79489;SHT31;68949;53.176;18.088;2023-08-12T04:14:13;14.36;74.55
79489;SHT31;68949;53.176;18.088;2023-08-12T04:16:42;14.41;74.86
79489;SHT31;68949;53.176;18.088;2023-08-12T04:19:09;14.50;74.82
79489;SHT31;68949;53.176;18.088;2023-08-12T04:21:36;14.59;74.63
79489;SHT31;68949;53.176;18.088;2023-08-12T04:24:02;14.68;74.52
79489;SHT31;68949;53.176;18.088;2023-08-12T04:26:30;14.77;74.30
79489;SHT31;68949;53.176;18.088;2023-08-12T04:28:56;14.80;74.50
79489;SHT31;68949;53.176;18.088;2023-08-12T04:31:23;14.93;74.62
79489;SHT31;68949;53.176;18.088;2023-08-12T04:33:51;15.16;74.20
79489;SHT31;68949;53.176;18.088;2023-08-12T04:36:19;15.29;73.84
79489;SHT31;68949;53.176;18.088;2023-08-12T04:38:46;15.33;73.67
79489;SHT31;68949;53.176;18.088;2023-08-12T04:41:13;15.36;73.89
79489;SHT31;68949;53.176;18.088;2023-08-12T04:43:39;15.42;74.12
79489;SHT31;68949;53.176;18.088;2023-08-12T04:46:07;15.59;73.37
79489;SHT31;68949;53.176;18.088;2023-08-12T04:48:34;15.75;72.67
79489;SHT31;68949;53.176;18.088;2023-08-12T04:51:01;15.81;72.42
79489;SHT31;68949;53.176;18.088;2023-08-12T04:53:29;15.88;72.37
79489;SHT31;68949;53.176;18.088;2023-08-12T04:55:56;16.00;72.61
79489;SHT31;68949;53.176;18.088;2023-08-12T04:58:23;16.18;72.41
79489;SHT31;68949;53.176;18.088;2023-08-12T05:00:50;16.42;71.98
79489;SHT31;68949;53.176;18.088;2023-08-12T05:03:21;16.61;71.57
79489;SHT31;68949;53.176;18.088;2023-08-12T05:05:52;16.72;71.46
79489;SHT31;68949;53.176;18.088;2023-08-12T05:08:19;16.85;71.48
79489;SHT31;68949;53.176;18.088;2023-08-12T05:10:47;16.94;71.76
79489;SHT31;68949;53.176;18.088;2023-08-12T05:13:15;17.18;71.38
79489;SHT31;68949;53.176;18.088;2023-08-12T05:15:46;17.56;70.86
79489;SHT31;68949;53.176;18.088;2023-08-12T05:18:14;18.09;70.01
79489;SHT31;68949;53.176;18.088;2023-08-12T05:20:41;18.67;68.58
79489;SHT31;68949;53.176;18.088;2023-08-12T05:23:09;19.07;67.46
79489;SHT31;68949;53.176;18.088;2023-08-12T05:25:35;19.39;67.05
79489;SHT31;68949;53.176;18.088;2023-08-12T05:28:02;19.71;66.22
79489;SHT31;68949;53.176;18.088;2023-08-12T05:30:29;20.00;65.45
79489;SHT31;68949;53.176;18.088;2023-08-12T05:32:56;20.27;64.06
79489;SHT31;68949;53.176;18.088;2023-08-12T05:35:22;20.59;63.38
79489;SHT31;68949;53.176;18.088;2023-08-12T05:37:49;20.90;62.93
79489;SHT31;68949;53.176;18.088;2023-08-12T05:40:16;21.13;62.33
79489;SHT31;68949;53.176;18.088;2023-08-12T05:42:42;21.27;61.84
79489;SHT31;68949;53.176;18.088;2023-08-12T05:45:09;21.41;61.45
79489;SHT31;68949;53.176;18.088;2023-08-12T05:47:37;21.59;61.22
79489;SHT31;68949;53.176;18.088;2023-08-12T05:50:04;21.77;60.70
79489;SHT31;68949;53.176;18.088;2023-08-12T05:52:32;21.88;60.20
79489;SHT31;68949;53.176;18.088;2023-08-12T05:54:59;21.98;59.72
79489;SHT31;68949;53.176;18.088;2023-08-12T05:57:26;22.14;59.53
79489;SHT31;68949;53.176;18.088;2023-08-12T05:59:53;22.31;58.88
79489;SHT31;68949;53.176;18.088;2023-08-12T06:02:20;22.47;58.39
79489;SHT31;68949;53.176;18.088;2023-08-12T06:04:47;22.55;57.60
79489;SHT31;68949;53.176;18.088;2023-08-12T06:07:13;22.55;57.22
79489;SHT31;68949;53.176;18.088;2023-08-12T06:09:40;22.57;56.90
79489;SHT31;68949;53.176;18.088;2023-08-12T06:12:07;22.54;56.63
79489;SHT31;68949;53.176;18.088;2023-08-12T06:14:36;22.57;56.86
79489;SHT31;68949;53.176;18.088;2023-08-12T06:17:05;22.74;56.44
79489;SHT31;68949;53.176;18.088;2023-08-12T06:19:32;22.88;56.27
79489;SHT31;68949;53.176;18.088;2023-08-12T06:21:59;23.04;56.04
79489;SHT31;68949;53.176;18.088;2023-08-12T06:24:26;23.26;55.39
79489;SHT31;68949;53.176;18.088;2023-08-12T06:26:53;23.35;55.14
79489;SHT31;68949;53.176;18.088;2023-08-12T06:29:19;23.38;54.79
79489;SHT31;68949;53.176;18.088;2023-08-12T06:31:46;23.31;54.47
79489;SHT31;68949;53.176;18.088;2023-08-12T06:34:13;23.25;54.44
79489;SHT31;68949;53.176;18.088;2023-08-12T06:36:39;23.22;54.47
79489;SHT31;68949;53.176;18.088;2023-08-12T06:39:06;23.20;54.27
79489;SHT31;68949;53.176;18.088;2023-08-12T06:41:34;23.15;54.00
79489;SHT31;68949;53.176;18.088;2023-08-12T06:44:01;23.07;54.22
79489;SHT31;68949;53.176;18.088;2023-08-12T06:46:30;23.04;54.22
79489;SHT31;68949;53.176;18.088;2023-08-12T06:48:58;23.05;54.46
79489;SHT31;68949;53.176;18.088;2023-08-12T06:51:25;23.03;54.39
79489;SHT31;68949;53.176;18.088;2023-08-12T06:53:52;23.01;54.20
79489;SHT31;68949;53.176;18.088;2023-08-12T06:56:19;23.05;53.76
79489;SHT31;68949;53.176;18.088;2023-08-12T06:58:46;23.11;53.95
79489;SHT31;68949;53.176;18.088;2023-08-12T07:01:14;23.19;53.79
79489;SHT31;68949;53.176;18.088;2023-08-12T07:03:43;23.29;53.66
79489;SHT31;68949;53.176;18.088;2023-08-12T07:06:10;23.37;53.31
79489;SHT31;68949;53.176;18.088;2023-08-12T07:08:37;23.42;53.25
79489;SHT31;68949;53.176;18.088;2023-08-12T07:11:06;23.49;52.82
79489;SHT31;68949;53.176;18.088;2023-08-12T07:13:33;23.54;52.92
79489;SHT31;68949;53.176;18.088;2023-08-12T07:16:01;23.58;53.04
79489;SHT31;68949;53.176;18.088;2023-08-12T07:18:28;23.62;53.07
79489;SHT31;68949;53.176;18.088;2023-08-12T07:21:02;23.61;52.60
79489;SHT31;68949;53.176;18.088;2023-08-12T07:23:29;23.62;52.70
79489;SHT31;68949;53.176;18.088;2023-08-12T07:25:56;23.66;52.50
79489;SHT31;68949;53.176;18.088;2023-08-12T07:28:23;23.73;52.53
79489;SHT31;68949;53.176;18.088;2023-08-12T07:30:50;23.77;52.57
79489;SHT31;68949;53.176;18.088;2023-08-12T07:33:19;23.85;52.52
79489;SHT31;68949;53.176;18.088;2023-08-12T07:35:49;23.96;51.57
79489;SHT31;68949;53.176;18.088;2023-08-12T07:38:18;24.01;51.23
79489;SHT31;68949;53.176;18.088;2023-08-12T07:40:45;24.04;51.26
79489;SHT31;68949;53.176;18.088;2023-08-12T07:43:12;24.08;52.18
79489;SHT31;68949;53.176;18.088;2023-08-12T07:45:43;24.17;51.56
79489;SHT31;68949;53.176;18.088;2023-08-12T07:48:10;24.26;51.10
79489;SHT31;68949;53.176;18.088;2023-08-12T07:50:37;24.40;50.51
79489;SHT31;68949;53.176;18.088;2023-08-12T07:53:03;24.53;50.69
79489;SHT31;68949;53.176;18.088;2023-08-12T07:55:30;24.66;50.03
79489;SHT31;68949;53.176;18.088;2023-08-12T07:57:58;24.76;49.97
79489;SHT31;68949;53.176;18.088;2023-08-12T08:00:25;24.80;49.40
79489;SHT31;68949;53.176;18.088;2023-08-12T08:02:54;24.86;49.70
79489;SHT31;68949;53.176;18.088;2023-08-12T08:05:20;24.92;50.01
79489;SHT31;68949;53.176;18.088;2023-08-12T08:07:50;24.95;49.61
79489;SHT31;68949;53.176;18.088;2023-08-12T08:10:20;24.97;48.98
79489;SHT31;68949;53.176;18.088;2023-08-12T08:12:47;25.01;48.18
79489;SHT31;68949;53.176;18.088;2023-08-12T08:15:14;25.11;48.24
79489;SHT31;68949;53.176;18.088;2023-08-12T08:17:41;25.23;48.10
79489;SHT31;68949;53.176;18.088;2023-08-12T08:20:08;25.30;48.03
79489;SHT31;68949;53.176;18.088;2023-08-12T08:22:38;25.41;48.10
79489;SHT31;68949;53.176;18.088;2023-08-12T08:25:05;25.51;46.80
79489;SHT31;68949;53.176;18.088;2023-08-12T08:27:33;25.53;46.84
79489;SHT31;68949;53.176;18.088;2023-08-12T08:30:00;25.56;46.89
79489;SHT31;68949;53.176;18.088;2023-08-12T08:32:27;25.56;47.00
79489;SHT31;68949;53.176;18.088;2023-08-12T08:34:54;25.68;46.71
79489;SHT31;68949;53.176;18.088;2023-08-12T08:37:20;25.78;46.53
79489;SHT31;68949;53.176;18.088;2023-08-12T08:39:51;25.91;46.13
79489;SHT31;68949;53.176;18.088;2023-08-12T08:42:18;26.01;45.93
79489;SHT31;68949;53.176;18.088;2023-08-12T08:44:48;26.05;45.29
79489;SHT31;68949;53.176;18.088;2023-08-12T08:47:25;26.06;45.18
79489;SHT31;68949;53.176;18.088;2023-08-12T08:49:57;26.12;44.92
79489;SHT31;68949;53.176;18.088;2023-08-12T08:52:25;26.16;44.94
79489;SHT31;68949;53.176;18.088;2023-08-12T08:54:52;26.20;44.79
79489;SHT31;68949;53.176;18.088;2023-08-12T08:57:20;26.28;45.15
79489;SHT31;68949;53.176;18.088;2023-08-12T08:59:55;26.36;44.51
79489;SHT31;68949;53.176;18.088;2023-08-12T09:02:22;26.38;44.38
79489;SHT31;68949;53.176;18.088;2023-08-12T09:04:58;26.40;43.97
79489;SHT31;68949;53.176;18.088;2023-08-12T09:07:25;26.45;44.01
79489;SHT31;68949;53.176;18.088;2023-08-12T09:09:52;26.51;43.52
79489;SHT31;68949;53.176;18.088;2023-08-12T09:12:22;26.50;43.52
79489;SHT31;68949;53.176;18.088;2023-08-12T09:14:52;26.56;43.62
79489;SHT31;68949;53.176;18.088;2023-08-12T09:17:18;26.61;43.52
79489;SHT31;68949;53.176;18.088;2023-08-12T09:19:45;26.64;43.61
79489;SHT31;68949;53.176;18.088;2023-08-12T09:22:12;26.71;43.55
79489;SHT31;68949;53.176;18.088;2023-08-12T09:24:40;26.73;42.45
79489;SHT31;68949;53.176;18.088;2023-08-12T09:27:09;26.68;42.06
79489;SHT31;68949;53.176;18.088;2023-08-12T09:29:36;26.73;43.09
79489;SHT31;68949;53.176;18.088;2023-08-12T09:32:10;26.84;43.42
79489;SHT31;68949;53.176;18.088;2023-08-12T09:34:51;26.92;43.26
79489;SHT31;68949;53.176;18.088;2023-08-12T09:37:20;27.01;42.77
79489;SHT31;68949;53.176;18.088;2023-08-12T09:39:51;26.98;42.01
79489;SHT31;68949;53.176;18.088;2023-08-12T09:42:18;26.95;42.51
79489;SHT31;68949;53.176;18.088;2023-08-12T09:44:45;26.93;42.44
79489;SHT31;68949;53.176;18.088;2023-08-12T09:47:12;26.95;42.37
79489;SHT31;68949;53.176;18.088;2023-08-12T09:49:40;26.89;42.53
79489;SHT31;68949;53.176;18.088;2023-08-12T09:52:08;26.93;42.94
79489;SHT31;68949;53.176;18.088;2023-08-12T09:54:35;27.04;42.88
79489;SHT31;68949;53.176;18.088;2023-08-12T09:57:04;27.17;42.86
79489;SHT31;68949;53.176;18.088;2023-08-12T09:59:35;27.26;41.48
79489;SHT31;68949;53.176;18.088;2023-08-12T10:02:03;27.29;42.63
79489;SHT31;68949;53.176;18.088;2023-08-12T10:04:35;27.39;42.18
79489;SHT31;68949;53.176;18.088;2023-08-12T10:07:09;27.42;41.67
79489;SHT31;68949;53.176;18.088;2023-08-12T10:09:39;27.50;41.71
79489;SHT31;68949;53.176;18.088;2023-08-12T10:12:06;27.52;41.82
79489;SHT31;68949;53.176;18.088;2023-08-12T10:14:34;27.57;41.73
79489;SHT31;68949;53.176;18.088;2023-08-12T10:17:01;27.62;41.73
79489;SHT31;68949;53.176;18.088;2023-08-12T10:19:29;27.64;41.21
79489;SHT31;68949;53.176;18.088;2023-08-12T10:21:58;27.49;40.73
79489;SHT31;68949;53.176;18.088;2023-08-12T10:24:26;27.45;41.27
79489;SHT31;68949;53.176;18.088;2023-08-12T10:26:54;27.51;41.16
79489;SHT31;68949;53.176;18.088;2023-08-12T10:29:24;27.60;41.39
79489;SHT31;68949;53.176;18.088;2023-08-12T10:31:51;27.67;40.42
79489;SHT31;68949;53.176;18.088;2023-08-12T10:34:21;27.70;40.39
79489;SHT31;68949;53.176;18.088;2023-08-12T10:36:54;27.70;40.61
79489;SHT31;68949;53.176;18.088;2023-08-12T10:39:24;27.64;40.83
79489;SHT31;68949;53.176;18.088;2023-08-12T10:41:54;27.74;41.23
79489;SHT31;68949;53.176;18.088;2023-08-12T10:44:24;27.89;40.77
79489;SHT31;68949;53.176;18.088;2023-08-12T10:47:05;28.02;40.72
79489;SHT31;68949;53.176;18.088;2023-08-12T10:49:43;28.09;40.76
79489;SHT31;68949;53.176;18.088;2023-08-12T10:52:31;28.10;40.19
79489;SHT31;68949;53.176;18.088;2023-08-12T10:57:49;28.05;39.91
79489;SHT31;68949;53.176;18.088;2023-08-12T11:00:18;28.06;39.77
79489;SHT31;68949;53.176;18.088;2023-08-12T11:02:50;28.09;39.57
79489;SHT31;68949;53.176;18.088;2023-08-12T11:05:22;28.15;40.21
79489;SHT31;68949;53.176;18.088;2023-08-12T11:07:57;28.20;39.46
79489;SHT31;68949;53.176;18.088;2023-08-12T11:10:30;28.27;39.89
79489;SHT31;68949;53.176;18.088;2023-08-12T11:13:00;28.35;40.18
79489;SHT31;68949;53.176;18.088;2023-08-12T11:15:29;28.38;39.63
79489;SHT31;68949;53.176;18.088;2023-08-12T11:17:59;28.39;39.82
79489;SHT31;68949;53.176;18.088;2023-08-12T11:20:31;28.37;39.35
79489;SHT31;68949;53.176;18.088;2023-08-12T11:22:58;28.39;40.02
79489;SHT31;68949;53.176;18.088;2023-08-12T11:25:30;28.44;39.66
79489;SHT31;68949;53.176;18.088;2023-08-12T11:28:00;28.48;39.57
79489;SHT31;68949;53.176;18.088;2023-08-12T11:30:27;28.51;39.58
79489;SHT31;68949;53.176;18.088;2023-08-12T11:32:54;28.53;39.33
79489;SHT31;68949;53.176;18.088;2023-08-12T11:35:22;28.53;38.88
79489;SHT31;68949;53.176;18.088;2023-08-12T11:37:52;28.53;38.72
79489;SHT31;68949;53.176;18.088;2023-08-12T11:40:23;28.57;39.11
79489;SHT31;68949;53.176;18.088;2023-08-12T11:42:51;28.60;39.05
79489;SHT31;68949;53.176;18.088;2023-08-12T11:45:21;28.62;39.15
79489;SHT31;68949;53.176;18.088;2023-08-12T11:47:51;28.65;38.89
79489;SHT31;68949;53.176;18.088;2023-08-12T11:50:22;28.64;38.50
79489;SHT31;68949;53.176;18.088;2023-08-12T11:52:52;28.61;38.80
79489;SHT31;68949;53.176;18.088;2023-08-12T11:55:21;28.63;38.91
79489;SHT31;68949;53.176;18.088;2023-08-12T11:57:49;28.57;38.84
79489;SHT31;68949;53.176;18.088;2023-08-12T12:00:17;28.58;39.00
79489;SHT31;68949;53.176;18.088;2023-08-12T12:05:18;28.73;38.48
79489;SHT31;68949;53.176;18.088;2023-08-12T12:07:48;28.70;38.00
79489;SHT31;68949;53.176;18.088;2023-08-12T12:10:20;28.63;38.40
79489;SHT31;68949;53.176;18.088;2023-08-12T12:12:56;28.63;38.25
79489;SHT31;68949;53.176;18.088;2023-08-12T12:15:23;28.63;37.73
79489;SHT31;68949;53.176;18.088;2023-08-12T12:17:50;28.65;37.91
79489;SHT31;68949;53.176;18.088;2023-08-12T12:20:18;28.68;38.10
79489;SHT31;68949;53.176;18.088;2023-08-12T12:22:46;28.70;37.77
79489;SHT31;68949;53.176;18.088;2023-08-12T12:25:15;28.67;37.53
79489;SHT31;68949;53.176;18.088;2023-08-12T12:27:46;28.69;37.97
79489;SHT31;68949;53.176;18.088;2023-08-12T12:30:15;28.75;37.85
79489;SHT31;68949;53.176;18.088;2023-08-12T12:32:43;28.81;37.84
79489;SHT31;68949;53.176;18.088;2023-08-12T12:35:13;28.84;37.17
79489;SHT31;68949;53.176;18.088;2023-08-12T12:37:40;28.79;37.26
79489;SHT31;68949;53.176;18.088;2023-08-12T12:40:12;28.78;37.78
79489;SHT31;68949;53.176;18.088;2023-08-12T12:42:49;28.82;37.75
79489;SHT31;68949;53.176;18.088;2023-08-12T12:45:30;28.82;37.45
79489;SHT31;68949;53.176;18.088;2023-08-12T12:47:57;28.82;37.98
79489;SHT31;68949;53.176;18.088;2023-08-12T12:50:24;28.88;38.17
79489;SHT31;68949;53.176;18.088;2023-08-12T12:52:52;28.93;38.67
79489;SHT31;68949;53.176;18.088;2023-08-12T12:55:24;28.98;38.23
79489;SHT31;68949;53.176;18.088;2023-08-12T12:57:51;29.01;38.27
79489;SHT31;68949;53.176;18.088;2023-08-12T13:00:21;29.06;38.76
79489;SHT31;68949;53.176;18.088;2023-08-12T13:02:50;29.08;38.22
79489;SHT31;68949;53.176;18.088;2023-08-12T13:05:17;28.95;38.16
79489;SHT31;68949;53.176;18.088;2023-08-12T13:07:44;28.94;38.60
79489;SHT31;68949;53.176;18.088;2023-08-12T13:10:14;28.96;38.62
79489;SHT31;68949;53.176;18.088;2023-08-12T13:12:44;29.00;38.32
79489;SHT31;68949;53.176;18.088;2023-08-12T13:15:10;29.06;38.52
79489;SHT31;68949;53.176;18.088;2023-08-12T13:17:38;29.13;38.16
79489;SHT31;68949;53.176;18.088;2023-08-12T13:20:09;29.21;37.94
79489;SHT31;68949;53.176;18.088;2023-08-12T13:22:38;29.26;37.69
79489;SHT31;68949;53.176;18.088;2023-08-12T13:25:17;29.25;37.35
79489;SHT31;68949;53.176;18.088;2023-08-12T13:27:44;29.20;37.71
79489;SHT31;68949;53.176;18.088;2023-08-12T13:30:12;29.21;37.88
79489;SHT31;68949;53.176;18.088;2023-08-12T13:32:40;29.21;37.72
79489;SHT31;68949;53.176;18.088;2023-08-12T13:35:10;29.27;37.62
79489;SHT31;68949;53.176;18.088;2023-08-12T13:37:38;29.34;37.71
79489;SHT31;68949;53.176;18.088;2023-08-12T13:40:22;29.34;37.45
79489;SHT31;68949;53.176;18.088;2023-08-12T13:42:49;29.31;38.02
79489;SHT31;68949;53.176;18.088;2023-08-12T13:45:17;29.32;37.95
79489;SHT31;68949;53.176;18.088;2023-08-12T13:47:46;29.31;37.66
79489;SHT31;68949;53.176;18.088;2023-08-12T13:50:14;29.33;37.80
79489;SHT31;68949;53.176;18.088;2023-08-12T13:52:41;29.34;37.73
79489;SHT31;68949;53.176;18.088;2023-08-12T13:55:09;29.39;37.85
79489;SHT31;68949;53.176;18.088;2023-08-12T13:57:36;29.45;37.97
79489;SHT31;68949;53.176;18.088;2023-08-12T14:00:04;29.49;37.45
79489;SHT31;68949;53.176;18.088;2023-08-12T14:02:41;29.46;36.56
79489;SHT31;68949;53.176;18.088;2023-08-12T14:05:08;29.37;37.62
79489;SHT31;68949;53.176;18.088;2023-08-12T14:07:38;29.36;37.54
79489;SHT31;68949;53.176;18.088;2023-08-12T14:10:08;29.38;38.26
79489;SHT31;68949;53.176;18.088;2023-08-12T14:12:35;29.39;38.32
79489;SHT31;68949;53.176;18.088;2023-08-12T14:15:04;29.39;37.73
79489;SHT31;68949;53.176;18.088;2023-08-12T14:17:35;29.42;37.63
79489;SHT31;68949;53.176;18.088;2023-08-12T14:20:06;29.45;37.59
79489;SHT31;68949;53.176;18.088;2023-08-12T14:22:36;29.28;36.89
79489;SHT31;68949;53.176;18.088;2023-08-12T14:25:04;29.02;37.39
79489;SHT31;68949;53.176;18.088;2023-08-12T14:27:32;28.89;37.58
79489;SHT31;68949;53.176;18.088;2023-08-12T14:29:58;28.79;37.66
79489;SHT31;68949;53.176;18.088;2023-08-12T14:32:25;28.72;37.94
79489;SHT31;68949;53.176;18.088;2023-08-12T14:34:52;28.76;38.20
79489;SHT31;68949;53.176;18.088;2023-08-12T14:37:19;28.89;38.17
79489;SHT31;68949;53.176;18.088;2023-08-12T14:39:45;28.99;38.63
79489;SHT31;68949;53.176;18.088;2023-08-12T14:42:12;28.99;38.45
79489;SHT31;68949;53.176;18.088;2023-08-12T14:44:38;29.01;38.22
79489;SHT31;68949;53.176;18.088;2023-08-12T14:47:05;28.98;38.66
79489;SHT31;68949;53.176;18.088;2023-08-12T14:49:33;28.88;38.31
79489;SHT31;68949;53.176;18.088;2023-08-12T14:51:59;28.85;38.77
79489;SHT31;68949;53.176;18.088;2023-08-12T14:54:26;28.88;38.80
79489;SHT31;68949;53.176;18.088;2023-08-12T14:56:53;28.98;38.68
79489;SHT31;68949;53.176;18.088;2023-08-12T14:59:20;28.94;38.54
79489;SHT31;68949;53.176;18.088;2023-08-12T15:01:46;28.81;38.87
79489;SHT31;68949;53.176;18.088;2023-08-12T15:04:13;28.78;38.57
79489;SHT31;68949;53.176;18.088;2023-08-12T15:06:39;28.75;38.37
79489;SHT31;68949;53.176;18.088;2023-08-12T15:09:06;28.66;38.71
79489;SHT31;68949;53.176;18.088;2023-08-12T15:11:33;28.55;38.63
79489;SHT31;68949;53.176;18.088;2023-08-12T15:13:59;28.39;38.89
79489;SHT31;68949;53.176;18.088;2023-08-12T15:16:26;28.25;39.21
79489;SHT31;68949;53.176;18.088;2023-08-12T15:18:53;28.11;39.45
79489;SHT31;68949;53.176;18.088;2023-08-12T15:21:19;28.00;39.98
79489;SHT31;68949;53.176;18.088;2023-08-12T15:23:46;27.90;40.56
79489;SHT31;68949;53.176;18.088;2023-08-12T15:26:13;27.79;40.78
79489;SHT31;68949;53.176;18.088;2023-08-12T15:28:39;27.67;40.89
79489;SHT31;68949;53.176;18.088;2023-08-12T15:31:06;27.57;40.80
79489;SHT31;68949;53.176;18.088;2023-08-12T15:33:33;27.51;41.10